Погода Мокрищевона неделю

Смоленская область, Россия

23 - 29 мая
  • 23мая
    Сегодня
    +7°
    +22°
    Ясно и безоблачно
    ВремяПогодаТемператураВлажностьДавлениеВетер, м/сВероятность осадков
    00:00Ясно и безоблачно+13°C50 %747 мм3.6 м/с2 %
    03:00Ясно и безоблачно+10°C56 %747 мм3.7 м/с2 %
    06:00Ясно и безоблачно+10°C59 %748 мм3.6 м/с2 %
    09:00Ясно и безоблачно+16°C51 %750 мм3.4 м/с2 %
    12:00Ясно и безоблачно+20°C35 %750 мм4.2 м/с2 %
    15:00Ясно и безоблачно+21°C32 %750 мм3.9 м/с2 %
    18:00Ясно и безоблачно+21°C34 %750 мм4.0 м/с2 %
    21:00Ясно и безоблачно+16°C53 %751 мм2.7 м/с2 %
  • 24мая
    Пятница
    +6°
    +21°
    Ясно и безоблачно
    ВремяПогодаТемператураВлажностьДавлениеВетер, м/сВероятность осадков
    00:00Ясно и безоблачно+11°C58 %751 мм2.9 м/с2 %
    03:00Ясно и безоблачно+9°C62 %752 мм2.8 м/с2 %
    06:00Ясно и безоблачно+9°C64 %753 мм2.6 м/с2 %
    09:00Ясно и безоблачно+15°C41 %754 мм3.0 м/с2 %
    12:00Ясно и безоблачно+18°C32 %754 мм4.5 м/с2 %
    15:00Ясно и безоблачно+20°C27 %753 мм4.6 м/с2 %
    18:00Ясно и безоблачно+20°C28 %753 мм3.8 м/с2 %
    21:00Ясно и безоблачно+15°C47 %752 мм2.8 м/с2 %
  • 25мая
    Суббота
    +9°
    +23°
    Небольшая облачность
    ВремяПогодаТемператураВлажностьДавлениеВетер, м/сВероятность осадков
    00:00Ясно и безоблачно+10°C57 %752 мм2.8 м/с2 %
    03:00Ясно и безоблачно+7°C67 %752 мм2.6 м/с2 %
    06:00Ясно и безоблачно+8°C71 %752 мм2.5 м/с2 %
    09:00Ясно и безоблачно+15°C54 %752 мм1.8 м/с2 %
    12:00Ясно и безоблачно+20°C37 %752 мм2.1 м/с2 %
    15:00Небольшая облачность+22°C33 %751 мм2.3 м/с2 %
    18:00Ясно и безоблачно+23°C35 %749 мм2.3 м/с2 %
    21:00Ясно и безоблачно+18°C61 %749 мм1.8 м/с2 %
  • 26мая
    Воскресенье
    +12°
    +26°
    Облачно с прояснениями
    ВремяПогодаТемператураВлажностьДавлениеВетер, м/сВероятность осадков
    00:00Ясно и безоблачно+13°C64 %749 мм2.7 м/с2 %
    03:00Ясно и безоблачно+10°C72 %748 мм2.4 м/с2 %
    06:00Ясно и безоблачно+11°C70 %748 мм2.4 м/с2 %
    09:00Ясно и безоблачно+19°C56 %749 мм1.6 м/с2 %
    12:00Практически безоблачно+23°C37 %749 мм2.4 м/с2 %
    15:00Облачно с прояснениями+25°C34 %748 мм2.4 м/с4 %
    18:00Облачно с прояснениями+25°C32 %747 мм2.5 м/с10 %
    21:00Практически безоблачно+19°C68 %748 мм2.7 м/с4 %
  • 27мая
    Понедельник
    +11°
    +24°
    Пасмурно, сплошная облачность
    ВремяПогодаТемператураВлажностьДавлениеВетер, м/сВероятность осадков
    00:00Небольшая облачность+15°C90 %749 мм2.6 м/с2 %
    03:00Ясно и безоблачно+13°C95 %749 мм3.1 м/с2 %
    06:00Ясно и безоблачно+13°C70 %750 мм2.9 м/с2 %
    09:00Ясно и безоблачно+19°C62 %750 мм2.8 м/с2 %
    12:00Практически безоблачно+23°C47 %751 мм3.3 м/с14 %
    15:00Пасмурно, сплошная облачность+23°C39 %750 мм2.8 м/с26 %
    18:00Небольшая облачность+22°C42 %750 мм2.3 м/с12 %
    21:00Ясно и безоблачно+19°C59 %750 мм2.5 м/с4 %
Мы используем cookies
Соглашаюсь